Time;durP1;ratioP1;P1;durP2;ratioP2;P2;SDS_P1;SDS_P2;PMS_P1;PMS_P2;Temp;Humidity;BMP_temperature;BMP_pressure;BME280_temperature;BME280_humidity;BME280_pressure;Samples;Min_cycle;Max_cycle;Signal;HPM_P1;HPM_P2
2022/12/01 06:31:40;;;;;;;;;;;;;;;7.43;59.54;97032.97;4178893;28;10432;-61
2022/12/01 06:33:43;;;;;;;;;;;;;;;7.70;59.50;97026.50;4179850;28;6472;-62
2022/12/01 06:35:46;;;;;;;;;;;;;;;7.90;58.93;97029.53;4178517;28;5742;-61
2022/12/01 06:37:48;;;;;;;;;;;;;;;8.08;58.77;97027.50;4181397;28;5748;-62
2022/12/01 06:39:51;;;;;;;;;;;;;;;8.25;58.42;97027.41;4181629;28;5811;-62
2022/12/01 06:41:54;;;;;;;;;;;;;;;8.35;58.39;97034.13;4181628;28;5830;-61
2022/12/01 06:43:56;;;;;;;;;;;;;;;8.46;58.04;97025.00;4181061;28;5735;-62
2022/12/01 06:45:59;;;;;;;;;;;;;;;8.49;57.66;97035.19;4181531;28;5858;-62
2022/12/01 06:48:05;;;;;;;;;;;;;;;8.53;56.99;97031.22;4181361;28;5836;-62
2022/12/01 06:50:10;;;;;;;;;;;;;;;8.58;57.33;97034.16;4181220;28;5885;-62
2022/12/01 06:52:13;;;;;;;;;;;;;;;8.64;57.46;97032.66;4181273;28;5830;-62
2022/12/01 06:54:16;;;;;;;;;;;;;;;8.69;56.88;97036.38;4174956;28;5742;-62
2022/12/01 06:56:20;;;;;;;;;;;;;;;8.67;56.67;97032.28;4181372;28;5104;-63
2022/12/01 06:58:23;;;;;;;;;;;;;;;8.65;56.53;97034.28;4181156;28;6468;-63
2022/12/01 07:00:27;;;;;;;;;;;;;;;8.55;56.25;97041.59;4181294;28;5731;-62
2022/12/01 07:02:30;;;;;;;;;;;;;;;8.51;56.01;97041.13;4181632;28;6317;-62
2022/12/01 07:04:34;;;;;;;;;;;;;;;8.55;56.19;97045.06;4180858;28;5755;-62
2022/12/01 07:06:37;;;;;;;;;;;;;;;8.61;56.22;97046.19;4180693;28;5774;-63
2022/12/01 07:08:39;;;;;;;;;;;;;;;8.64;55.94;97051.09;4180300;28;5743;-62
2022/12/01 07:10:42;;;;;;;;;;;;;;;8.67;56.10;97041.00;4180680;28;5750;-63
2022/12/01 07:12:45;;;;;;;;;;;;;;;8.67;56.03;97048.91;4171497;28;5811;-62
2022/12/01 07:14:47;;;;;;;;;;;;;;;8.69;55.58;97052.19;4174456;28;5751;-62
2022/12/01 07:16:50;;;;;;;;;;;;;;;8.66;55.69;97051.75;4175505;28;5851;-62
2022/12/01 07:18:55;;;;;;;;;;;;;;;8.63;55.58;97060.00;4167313;28;5962;-63
2022/12/01 07:21:01;;;;;;;;;;;;;;;8.67;55.56;97059.47;4179126;28;5720;-63
2022/12/01 07:23:03;;;;;;;;;;;;;;;8.69;55.29;97056.66;4174170;28;5849;-66
2022/12/01 07:25:07;;;;;;;;;;;;;;;8.74;55.37;97049.88;4174897;28;5743;-64
2022/12/01 07:27:10;;;;;;;;;;;;;;;8.74;55.24;97059.59;4173598;28;5750;-65
2022/12/01 07:29:13;;;;;;;;;;;;;;;8.73;55.27;97058.78;4179002;28;6414;-67
2022/12/01 07:31:18;;;;;;;;;;;;;;;8.69;54.74;97061.91;4176530;28;5798;-68
2022/12/01 07:33:20;;;;;;;;;;;;;;;8.82;55.16;97050.78;4169620;28;5844;-67
2022/12/01 07:35:23;;;;;;;;;;;;;;;8.87;55.03;97061.66;4169762;28;6288;-68
2022/12/01 07:37:27;;;;;;;;;;;;;;;8.86;54.67;97058.19;4169454;28;5754;-67
2022/12/01 07:39:30;;;;;;;;;;;;;;;8.88;55.04;97060.66;4169263;28;5854;-68
2022/12/01 07:41:33;;;;;;;;;;;;;;;8.92;54.68;97061.94;4169469;28;7037;-66
2022/12/01 07:43:37;;;;;;;;;;;;;;;8.91;54.51;97062.94;4161780;28;5742;-66
2022/12/01 07:45:39;;;;;;;;;;;;;;;8.90;54.46;97062.09;4169021;28;5750;-67
2022/12/01 07:47:43;;;;;;;;;;;;;;;8.91;54.09;97065.56;4162835;28;5867;-67
2022/12/01 07:49:46;;;;;;;;;;;;;;;8.87;53.95;97064.28;4161891;28;5739;-67
2022/12/01 07:51:49;;;;;;;;;;;;;;;8.85;53.97;97061.81;4164499;28;5199;-67
2022/12/01 07:53:54;;;;;;;;;;;;;;;8.84;53.92;97069.91;4169873;28;5746;-66
2022/12/01 07:55:59;;;;;;;;;;;;;;;8.88;54.13;97068.56;4169960;28;5735;-67
2022/12/01 07:58:08;;;;;;;;;;;;;;;8.93;53.96;97079.38;4170146;28;5749;-66
2022/12/01 08:00:13;;;;;;;;;;;;;;;8.93;53.67;97068.84;4169842;28;5731;-66
2022/12/01 08:02:16;;;;;;;;;;;;;;;8.95;53.83;97064.25;4169836;28;5806;-67
2022/12/01 08:04:19;;;;;;;;;;;;;;;8.94;53.57;97065.19;4168921;28;5939;-66
2022/12/01 08:06:24;;;;;;;;;;;;;;;8.92;53.33;97072.47;4169119;28;5745;-66
2022/12/01 08:08:27;;;;;;;;;;;;;;;8.93;53.40;97077.56;4169378;28;5747;-67
2022/12/01 08:10:31;;;;;;;;;;;;;;;8.99;53.73;97083.97;4169392;28;5747;-66
2022/12/01 08:12:34;;;;;;;;;;;;;;;9.00;53.25;97075.88;4169582;28;5727;-67
2022/12/01 08:14:37;;;;;;;;;;;;;;;8.95;53.22;97082.69;4169629;28;5743;-66
2022/12/01 08:16:40;;;;;;;;;;;;;;;8.92;53.40;97072.47;4169214;28;5125;-66
2022/12/01 08:18:43;;;;;;;;;;;;;;;8.93;53.11;97076.75;4169156;28;5752;-67
2022/12/01 08:20:47;;;;;;;;;;;;;;;8.92;53.19;97073.28;4168710;28;5724;-67
2022/12/01 08:22:50;;;;;;;;;;;;;;;8.93;53.00;97074.13;4169018;28;5739;-67
2022/12/01 08:24:55;;;;;;;;;;;;;;;9.01;53.28;97076.69;4169324;28;5766;-66
2022/12/01 08:27:00;;;;;;;;;;;;;;;9.11;52.99;97069.38;4168892;28;5740;-67
2022/12/01 08:29:04;;;;;;;;;;;;;;;9.15;52.68;97068.00;4169125;28;5728;-67
2022/12/01 08:31:09;;;;;;;;;;;;;;;9.12;52.62;97078.09;4169018;28;5882;-67
2022/12/01 08:33:26;;;;;;;;;;;;;;;9.06;52.70;97074.38;4169046;28;5806;-67
2022/12/01 08:35:34;;;;;;;;;;;;;;;9.07;52.85;97076.00;4168894;28;5822;-67
2022/12/01 08:37:38;;;;;;;;;;;;;;;9.13;52.70;97075.28;4168863;28;5759;-66
2022/12/01 08:39:41;;;;;;;;;;;;;;;9.17;52.55;97067.81;4168840;28;5743;-66
2022/12/01 08:41:44;;;;;;;;;;;;;;;9.19;52.43;97069.31;4168699;28;5736;-66
2022/12/01 08:43:48;;;;;;;;;;;;;;;9.14;52.25;97074.28;4167689;28;5886;-66
2022/12/01 08:46:01;;;;;;;;;;;;;;;9.11;52.53;97077.28;4169010;28;5735;-67
2022/12/01 08:48:04;;;;;;;;;;;;;;;9.16;52.13;97071.47;4169006;28;5766;-66
2022/12/01 08:50:08;;;;;;;;;;;;;;;9.13;52.25;97072.66;4167310;28;5722;-66
2022/12/01 08:52:11;;;;;;;;;;;;;;;9.14;52.07;97073.47;4168566;28;5739;-66
2022/12/01 08:54:14;;;;;;;;;;;;;;;9.14;52.18;97071.66;4168685;28;5751;-67
2022/12/01 08:56:20;;;;;;;;;;;;;;;9.15;51.80;97073.28;4168706;28;5779;-66
2022/12/01 08:58:23;;;;;;;;;;;;;;;9.16;51.81;97080.19;4168511;28;5746;-67
2022/12/01 09:00:28;;;;;;;;;;;;;;;9.16;51.67;97074.94;4168275;28;5723;-66
2022/12/01 09:02:32;;;;;;;;;;;;;;;9.11;51.58;97077.28;4168381;28;5715;-67
2022/12/01 09:04:35;;;;;;;;;;;;;;;9.11;51.54;97074.66;4168607;28;5743;-65
2022/12/01 09:06:42;;;;;;;;;;;;;;;9.16;51.70;97082.84;4168152;28;5858;-66
2022/12/01 09:08:45;;;;;;;;;;;;;;;9.21;51.66;97085.78;4168738;28;5728;-66
2022/12/01 09:10:51;;;;;;;;;;;;;;;9.28;51.71;97086.69;4167978;28;5739;-66
2022/12/01 09:12:54;;;;;;;;;;;;;;;9.30;51.26;97091.81;4168870;28;6492;-66
2022/12/01 09:14:59;;;;;;;;;;;;;;;9.26;51.56;97090.50;4168630;28;5727;-66
2022/12/01 09:17:05;;;;;;;;;;;;;;;9.26;51.57;97096.59;4167733;28;5728;-66
2022/12/01 09:19:09;;;;;;;;;;;;;;;9.32;51.62;97095.09;4168082;28;5746;-67
2022/12/01 09:21:27;;;;;;;;;;;;;;;9.33;51.34;97102.00;4167971;28;5731;-67
2022/12/01 09:23:32;;;;;;;;;;;;;;;9.28;51.02;97094.59;4158641;28;5654;-67
2022/12/01 09:25:35;;;;;;;;;;;;;;;9.26;51.19;97093.16;4168107;28;5835;-67
2022/12/01 09:27:41;;;;;;;;;;;;;;;9.26;51.01;97090.50;4168442;28;5852;-67
2022/12/01 09:29:45;;;;;;;;;;;;;;;9.26;50.71;97091.34;4167968;28;5889;-65
2022/12/01 09:31:48;;;;;;;;;;;;;;;9.24;51.10;97093.34;4166703;28;5682;-66
2022/12/01 09:33:59;;;;;;;;;;;;;;;9.29;50.91;97093.63;4167999;28;6414;-67
2022/12/01 09:36:03;;;;;;;;;;;;;;;9.36;50.96;97095.56;4167933;28;5728;-67
2022/12/01 09:38:06;;;;;;;;;;;;;;;9.37;50.73;97102.47;4167947;28;5743;-68
2022/12/01 09:40:13;;;;;;;;;;;;;;;9.34;50.59;97087.81;4168097;28;5842;-67
2022/12/01 09:42:21;;;;;;;;;;;;;;;9.36;50.75;97100.81;4168074;28;5839;-66
2022/12/01 09:44:38;;;;;;;;;;;;;;;9.39;50.69;97089.91;4168097;28;5928;-67
2022/12/01 09:46:44;;;;;;;;;;;;;;;9.45;50.35;97092.66;4151735;28;5756;-66
2022/12/01 09:48:49;;;;;;;;;;;;;;;9.43;50.35;97092.03;4161279;28;5842;-67
2022/12/01 09:50:54;;;;;;;;;;;;;;;9.44;50.48;97103.41;4167728;28;5764;-66
2022/12/01 09:53:00;;;;;;;;;;;;;;;9.37;50.41;97099.81;4167790;28;5754;-67
2022/12/01 09:55:03;;;;;;;;;;;;;;;9.33;50.43;97094.91;4167570;28;5976;-66
2022/12/01 09:57:11;;;;;;;;;;;;;;;9.37;50.37;97097.19;4167601;28;5748;-66
2022/12/01 09:59:19;;;;;;;;;;;;;;;9.37;50.47;97099.81;4167679;28;5736;-67
2022/12/01 10:01:31;;;;;;;;;;;;;;;9.33;50.11;97107.28;4167429;28;5742;-68
2022/12/01 10:03:44;;;;;;;;;;;;;;;9.36;50.41;97103.47;4168067;28;5739;-67
2022/12/01 10:05:50;;;;;;;;;;;;;;;9.36;50.23;97099.00;4168066;28;5782;-65
2022/12/01 10:08:18;;;;;;;;;;;;;;;9.40;50.40;97102.94;4167959;28;5851;-66
2022/12/01 10:10:32;;;;;;;;;;;;;;;9.32;50.15;97095.91;4167552;28;5783;-66
2022/12/01 10:12:36;;;;;;;;;;;;;;;9.33;49.96;97097.56;4151338;28;5763;-66
2022/12/01 10:14:45;;;;;;;;;;;;;;;9.37;49.91;97107.75;4167241;28;5816;-66
2022/12/01 10:16:59;;;;;;;;;;;;;;;9.33;49.85;97097.56;4167682;28;5827;-66
2022/12/01 10:19:08;;;;;;;;;;;;;;;9.37;50.33;97097.19;4166491;28;5886;-66
2022/12/01 10:21:19;;;;;;;;;;;;;;;9.43;50.11;97086.75;4167097;28;5724;-66
2022/12/01 10:23:49;;;;;;;;;;;;;;;9.46;50.00;97098.75;4167552;28;5742;-66
2022/12/01 10:25:56;;;;;;;;;;;;;;;9.53;49.83;97089.16;4167540;28;5740;-66
2022/12/01 10:28:12;;;;;;;;;;;;;;;9.55;49.68;97089.78;4167647;28;5842;-67
2022/12/01 10:30:17;;;;;;;;;;;;;;;9.54;49.60;97093.41;4166654;28;5879;-66
2022/12/01 10:32:28;;;;;;;;;;;;;;;9.52;49.79;97085.69;4167600;28;6452;-66
2022/12/01 10:34:35;;;;;;;;;;;;;;;9.56;49.84;97088.78;4167625;28;5734;-67
2022/12/01 10:36:38;;;;;;;;;;;;;;;9.61;49.78;97075.84;4167229;28;5797;-67
2022/12/01 10:38:43;;;;;;;;;;;;;;;9.64;49.79;97094.00;4167500;28;5197;-66
2022/12/01 10:40:46;;;;;;;;;;;;;;;9.63;49.46;97087.88;4167052;28;7310;-66
2022/12/01 10:42:50;;;;;;;;;;;;;;;9.65;49.40;97085.06;4167350;28;5771;-67
2022/12/01 10:44:54;;;;;;;;;;;;;;;9.73;49.30;97081.50;4167568;28;5763;-66
2022/12/01 10:46:57;;;;;;;;;;;;;;;9.71;49.13;97080.88;4167399;28;5758;-67
2022/12/01 10:49:08;;;;;;;;;;;;;;;9.66;49.50;97081.41;4167549;28;5750;-67
2022/12/01 10:51:16;;;;;;;;;;;;;;;9.63;49.69;97079.97;4167251;28;5759;-67
2022/12/01 10:53:28;;;;;;;;;;;;;;;9.67;49.36;97082.25;4167221;28;6424;-67
2022/12/01 10:55:36;;;;;;;;;;;;;;;9.66;49.64;97081.41;4167605;28;5727;-66
2022/12/01 10:57:45;;;;;;;;;;;;;;;9.67;49.30;97077.78;4167496;28;5790;-66
2022/12/01 10:59:51;;;;;;;;;;;;;;;9.67;49.58;97072.50;4167557;28;6507;-66
2022/12/01 11:01:55;;;;;;;;;;;;;;;9.68;49.17;97075.97;4167583;28;5827;-66
2022/12/01 11:04:02;;;;;;;;;;;;;;;9.68;49.34;97079.41;4167500;28;5755;-66
2022/12/01 11:06:07;;;;;;;;;;;;;;;9.70;49.23;97071.31;4166937;28;5861;-66
2022/12/01 11:08:23;;;;;;;;;;;;;;;9.70;49.47;97076.59;4170883;28;5731;-67
2022/12/01 11:10:28;;;;;;;;;;;;;;;9.67;49.10;97069.03;4170499;28;5826;-68
2022/12/01 11:12:35;;;;;;;;;;;;;;;9.63;49.56;97066.78;4170341;28;5101;-68
2022/12/01 11:14:44;;;;;;;;;;;;;;;9.66;49.44;97068.22;4170063;28;7729;-66
2022/12/01 11:16:50;;;;;;;;;;;;;;;9.73;49.33;97071.75;4170361;28;5735;-67
2022/12/01 11:19:08;;;;;;;;;;;;;;;9.72;49.11;97071.94;4169926;28;5833;-67
2022/12/01 11:21:14;;;;;;;;;;;;;;;9.76;49.26;97071.44;4169840;28;5894;-68
2022/12/01 11:23:28;;;;;;;;;;;;;;;9.75;49.26;97067.16;4169983;28;5889;-68
2022/12/01 11:25:31;;;;;;;;;;;;;;;9.76;49.45;97063.50;4170102;28;5740;-66
2022/12/01 11:27:37;;;;;;;;;;;;;;;9.83;49.08;97066.22;4170004;28;5735;-67
2022/12/01 11:29:40;;;;;;;;;;;;;;;9.91;49.24;97068.78;4169863;28;5743;-67
2022/12/01 11:31:46;;;;;;;;;;;;;;;9.96;49.05;97063.75;4170145;28;5924;-68
2022/12/01 11:33:53;;;;;;;;;;;;;;;10.01;49.11;97068.50;4170273;28;5734;-67
2022/12/01 11:35:56;;;;;;;;;;;;;;;10.04;49.14;97068.97;4170122;28;5743;-67
2022/12/01 11:38:03;;;;;;;;;;;;;;;10.05;48.89;97064.50;4169394;28;5795;-68
2022/12/01 11:40:29;;;;;;;;;;;;;;;10.06;49.12;97071.41;4169338;28;5826;-67
2022/12/01 11:42:36;;;;;;;;;;;;;;;10.07;49.26;97070.41;4169768;28;5640;-67
2022/12/01 11:44:41;;;;;;;;;;;;;;;10.10;49.21;97064.78;4169902;28;5746;-66
2022/12/01 11:47:12;;;;;;;;;;;;;;;10.04;49.01;97068.13;4165421;28;5760;-67
2022/12/01 11:49:28;;;;;;;;;;;;;;;10.00;49.14;97069.53;4153385;28;5843;-67
2022/12/01 11:51:36;;;;;;;;;;;;;;;9.98;49.12;97069.69;4169051;28;5747;-67
2022/12/01 11:53:41;;;;;;;;;;;;;;;9.98;49.27;97063.59;4169788;28;5756;-68
2022/12/01 11:55:47;;;;;;;;;;;;;;;10.01;48.93;97063.22;4170077;28;5744;-67
2022/12/01 11:57:56;;;;;;;;;;;;;;;9.97;49.11;97061.97;4169636;28;6539;-67
2022/12/01 11:59:59;;;;;;;;;;;;;;;9.95;49.03;97058.66;4170003;28;6481;-67
2022/12/01 12:02:20;;;;;;;;;;;;;;;10.01;49.16;97064.03;4169418;28;5744;-67
2022/12/01 12:04:39;;;;;;;;;;;;;;;10.04;49.17;97062.84;4169526;28;5740;-67
2022/12/01 12:06:49;;;;;;;;;;;;;;;10.05;48.87;97052.09;4168897;28;5739;-67
2022/12/01 12:09:18;;;;;;;;;;;;;;;10.03;49.06;97056.75;4169437;28;6398;-67
2022/12/01 12:11:27;;;;;;;;;;;;;;;10.02;48.78;97049.00;4169759;28;5834;-67
2022/12/01 12:13:56;;;;;;;;;;;;;;;10.01;48.72;97053.47;4169392;28;5823;-67
2022/12/01 12:16:07;;;;;;;;;;;;;;;10.02;48.86;97051.66;4169585;28;5823;-67
2022/12/01 12:18:36;;;;;;;;;;;;;;;10.06;48.93;97050.28;4169067;28;5807;-67
2022/12/01 12:20:51;;;;;;;;;;;;;;;10.08;48.89;97056.19;4169215;28;5850;-67
2022/12/01 12:23:06;;;;;;;;;;;;;;;10.01;48.73;97052.66;4168929;28;5753;-67
2022/12/01 12:25:24;;;;;;;;;;;;;;;9.96;48.92;97049.72;4169445;28;5837;-67
2022/12/01 12:27:39;;;;;;;;;;;;;;;9.96;48.84;97050.56;4169237;28;5743;-67
2022/12/01 12:29:57;;;;;;;;;;;;;;;9.99;48.77;97042.28;4152597;28;5788;-67
2022/12/01 12:32:14;;;;;;;;;;;;;;;10.05;49.09;97048.63;4152890;28;5760;-67
2022/12/01 12:34:31;;;;;;;;;;;;;;;10.00;48.70;97046.56;4166795;28;5747;-67
2022/12/01 12:36:43;;;;;;;;;;;;;;;9.96;48.79;97042.63;4159333;28;5851;-67
2022/12/01 12:39:00;;;;;;;;;;;;;;;9.91;48.88;97040.56;4169103;28;5947;-67
2022/12/01 12:41:16;;;;;;;;;;;;;;;9.92;48.96;97038.72;4168684;28;5763;-66
2022/12/01 12:43:29;;;;;;;;;;;;;;;9.92;48.93;97036.91;4169000;28;5910;-66
2022/12/01 12:45:53;;;;;;;;;;;;;;;9.92;49.16;97028.97;4168864;28;5859;-67
2022/12/01 12:48:23;;;;;;;;;;;;;;;9.96;49.07;97034.72;4168529;28;5743;-67
2022/12/01 12:50:34;;;;;;;;;;;;;;;10.04;48.98;97039.09;4168635;28;5748;-67
2022/12/01 12:52:42;;;;;;;;;;;;;;;10.06;48.61;97039.72;4152184;28;5846;-68
2022/12/01 12:54:50;;;;;;;;;;;;;;;10.04;48.75;97031.97;4161801;28;5848;-68
2022/12/01 12:57:02;;;;;;;;;;;;;;;9.95;48.81;97027.78;4168500;28;5886;-68
2022/12/01 12:59:10;;;;;;;;;;;;;;;9.91;48.58;97030.00;4169023;28;5730;-68
2022/12/01 13:01:20;;;;;;;;;;;;;;;9.90;49.11;97032.81;4168917;28;5732;-66
2022/12/01 13:03:35;;;;;;;;;;;;;;;9.88;48.73;97032.19;4168781;28;5732;-66
2022/12/01 13:05:43;;;;;;;;;;;;;;;9.87;48.99;97019.97;4168463;28;5838;-66
2022/12/01 13:07:51;;;;;;;;;;;;;;;9.85;48.75;97022.81;4168201;28;5814;-66
2022/12/01 13:09:58;;;;;;;;;;;;;;;9.88;48.90;97017.16;4168486;28;5085;-66
2022/12/01 13:12:09;;;;;;;;;;;;;;;9.90;48.97;97025.72;4168708;28;5739;-66
2022/12/01 13:14:18;;;;;;;;;;;;;;;9.90;48.86;97028.34;4168429;28;5795;-67
2022/12/01 13:16:26;;;;;;;;;;;;;;;9.92;48.74;97028.97;4168599;28;5081;-67
2022/12/01 13:18:40;;;;;;;;;;;;;;;9.94;48.92;97026.16;4168351;28;5841;-67
2022/12/01 13:20:52;;;;;;;;;;;;;;;9.91;48.78;97026.53;4168004;28;5855;-67
2022/12/01 13:22:57;;;;;;;;;;;;;;;9.91;48.83;97026.53;4168169;28;5835;-68
2022/12/01 13:25:01;;;;;;;;;;;;;;;9.92;48.78;97025.53;4168347;28;5753;-67
2022/12/01 13:27:12;;;;;;;;;;;;;;;9.94;48.82;97015.59;4168216;28;5822;-68
2022/12/01 13:29:19;;;;;;;;;;;;;;;9.96;48.52;97016.22;4167904;28;5739;-67
2022/12/01 13:31:24;;;;;;;;;;;;;;;9.94;48.94;97020.88;4168092;28;5926;-67
2022/12/01 13:33:27;;;;;;;;;;;;;;;9.97;48.62;97019.72;4168252;28;5742;-68
2022/12/01 13:35:32;;;;;;;;;;;;;;;9.98;48.81;97011.59;4168089;28;5751;-67
2022/12/01 13:37:38;;;;;;;;;;;;;;;10.06;48.84;97016.75;4167804;28;5854;-67
2022/12/01 13:39:41;;;;;;;;;;;;;;;10.07;48.71;97013.13;4167908;28;5727;-67
2022/12/01 13:41:46;;;;;;;;;;;;;;;10.10;49.04;97019.88;4167841;28;5751;-67
2022/12/01 13:43:56;;;;;;;;;;;;;;;10.13;48.53;97016.84;4168051;28;5739;-66
2022/12/01 13:46:02;;;;;;;;;;;;;;;10.12;48.66;97016.03;4168109;28;5827;-67
2022/12/01 13:48:27;;;;;;;;;;;;;;;10.14;48.76;97011.38;4168047;28;5748;-67
2022/12/01 13:50:57;;;;;;;;;;;;;;;10.17;48.95;97016.28;4167930;28;5815;-66
2022/12/01 13:53:11;;;;;;;;;;;;;;;10.22;48.79;97012.31;4165133;28;5748;-67
2022/12/01 13:55:26;;;;;;;;;;;;;;;10.26;48.44;97014.41;4168082;28;5794;-66
2022/12/01 13:57:32;;;;;;;;;;;;;;;10.28;48.49;97020.31;4167707;28;5781;-66
2022/12/01 14:00:02;;;;;;;;;;;;;;;10.28;48.32;97011.56;4167716;28;5739;-67
2022/12/01 14:02:20;;;;;;;;;;;;;;;10.24;48.74;97016.41;4167865;28;5747;-67
2022/12/01 14:04:30;;;;;;;;;;;;;;;10.23;48.34;97014.78;4167676;28;5834;-67
2022/12/01 14:06:38;;;;;;;;;;;;;;;10.24;48.45;97010.31;4167564;28;5799;-65
2022/12/01 14:08:47;;;;;;;;;;;;;;;10.24;48.65;97010.31;4167371;28;5754;-66
2022/12/01 14:10:54;;;;;;;;;;;;;;;10.30;48.47;97014.84;4167597;28;5764;-67
2022/12/01 14:13:01;;;;;;;;;;;;;;;10.30;48.26;97020.13;4167343;28;6480;-67
2022/12/01 14:15:22;;;;;;;;;;;;;;;10.28;48.76;97012.38;4167694;28;5818;-67
2022/12/01 14:17:28;;;;;;;;;;;;;;;10.26;48.31;97016.22;4167406;28;5834;-67
2022/12/01 14:19:37;;;;;;;;;;;;;;;10.24;48.52;97011.13;4167352;28;5740;-67
2022/12/01 14:21:43;;;;;;;;;;;;;;;10.24;48.55;97015.59;4167358;28;5735;-67
2022/12/01 14:24:01;;;;;;;;;;;;;;;10.25;48.67;97023.31;4167341;28;5814;-67
2022/12/01 14:26:11;;;;;;;;;;;;;;;10.28;48.34;97022.94;4167402;28;5747;-67
2022/12/01 14:28:17;;;;;;;;;;;;;;;10.26;48.55;97017.03;4167654;28;5751;-67
2022/12/01 14:30:57;;;;;;;;;;;;;;;10.27;48.57;97023.97;4167037;28;5735;-67
2022/12/01 14:33:33;;;;;;;;;;;;;;;10.30;48.50;97020.94;4162465;28;6216;-67
2022/12/01 14:35:37;;;;;;;;;;;;;;;10.29;48.65;97021.94;4167533;28;5078;-67
2022/12/01 14:37:47;;;;;;;;;;;;;;;10.25;48.40;97022.50;4167216;28;5747;-67
2022/12/01 14:39:56;;;;;;;;;;;;;;;10.14;48.67;97023.78;4167435;28;5735;-68
2022/12/01 14:42:02;;;;;;;;;;;;;;;10.12;48.87;97023.13;4168874;28;5739;-66
2022/12/01 14:44:15;;;;;;;;;;;;;;;10.11;48.53;97022.31;4170672;28;6287;-66
2022/12/01 14:46:24;;;;;;;;;;;;;;;10.14;48.77;97026.41;4170609;28;5731;-66
2022/12/01 14:48:35;;;;;;;;;;;;;;;10.10;48.59;97012.75;4168796;28;5781;-67
2022/12/01 14:50:42;;;;;;;;;;;;;;;10.07;48.85;97020.22;4170304;28;5759;-67
2022/12/01 14:52:53;;;;;;;;;;;;;;;10.02;48.50;97014.69;4169226;28;5845;-67
2022/12/01 14:54:59;;;;;;;;;;;;;;;9.99;48.62;97017.69;4170281;28;5744;-67
2022/12/01 14:57:04;;;;;;;;;;;;;;;9.97;48.79;97017.88;4170560;28;5739;-67
2022/12/01 14:59:20;;;;;;;;;;;;;;;10.02;48.62;97017.31;4162810;28;6312;-67
2022/12/01 15:01:25;;;;;;;;;;;;;;;9.95;48.49;97016.41;4168336;28;5743;-67
2022/12/01 15:03:33;;;;;;;;;;;;;;;9.95;48.89;97021.69;4170371;28;6458;-66
2022/12/01 15:05:41;;;;;;;;;;;;;;;9.93;49.04;97019.22;4166719;28;5818;-67
2022/12/01 15:07:47;;;;;;;;;;;;;;;9.95;48.84;97014.59;4170178;28;5842;-67
2022/12/01 15:09:58;;;;;;;;;;;;;;;9.98;48.89;97022.16;4170195;28;7778;-67
2022/12/01 15:12:06;;;;;;;;;;;;;;;9.99;48.52;97020.34;4170381;28;5762;-67
2022/12/01 15:14:25;;;;;;;;;;;;;;;9.93;48.85;97025.34;4170069;28;6426;-67
2022/12/01 15:16:31;;;;;;;;;;;;;;;9.96;48.72;97018.84;4169848;28;5829;-67
2022/12/01 15:18:36;;;;;;;;;;;;;;;10.00;48.87;97024.63;4169661;28;5877;-68
2022/12/01 15:20:41;;;;;;;;;;;;;;;9.98;48.60;97018.69;4169911;28;5813;-68
2022/12/01 15:22:51;;;;;;;;;;;;;;;10.00;48.68;97021.97;4167607;28;6436;-68
2022/12/01 15:24:54;;;;;;;;;;;;;;;9.93;48.65;97033.25;4158579;28;5728;-67
2022/12/01 15:26:59;;;;;;;;;;;;;;;9.89;48.95;97024.06;4162271;28;5851;-67
2022/12/01 15:29:17;;;;;;;;;;;;;;;9.91;48.63;97029.16;4169462;28;5811;-67
2022/12/01 15:31:20;;;;;;;;;;;;;;;9.92;49.00;97028.16;4160985;28;5752;-67
2022/12/01 15:33:26;;;;;;;;;;;;;;;9.88;48.68;97022.44;4167667;28;5849;-67
2022/12/01 15:35:34;;;;;;;;;;;;;;;9.87;48.50;97025.25;4162223;28;5754;-67
2022/12/01 15:37:43;;;;;;;;;;;;;;;9.83;48.94;97030.06;4166602;28;5830;-66
2022/12/01 15:39:49;;;;;;;;;;;;;;;9.88;49.01;97022.44;4165158;28;5798;-67
2022/12/01 15:41:54;;;;;;;;;;;;;;;9.91;48.59;97032.63;4166101;28;6542;-67
2022/12/01 15:44:02;;;;;;;;;;;;;;;9.88;48.61;97029.53;4164897;28;5835;-67
2022/12/01 15:46:12;;;;;;;;;;;;;;;9.81;48.65;97026.81;4162683;28;5879;-67
2022/12/01 15:48:26;;;;;;;;;;;;;;;9.77;48.99;97024.72;4162291;28;5754;-67
2022/12/01 15:50:35;;;;;;;;;;;;;;;9.80;48.85;97029.63;4164351;28;5767;-67
2022/12/01 15:52:46;;;;;;;;;;;;;;;9.84;48.93;97021.16;4166600;28;5872;-66
2022/12/01 15:54:49;;;;;;;;;;;;;;;9.87;48.54;97030.53;4166033;28;5814;-66
2022/12/01 15:56:55;;;;;;;;;;;;;;;9.88;48.75;97026.91;4163208;28;5108;-67
2022/12/01 15:59:06;;;;;;;;;;;;;;;9.93;48.93;97029.78;4167591;28;7750;-67
2022/12/01 16:01:15;;;;;;;;;;;;;;;9.94;48.46;97026.16;4167526;28;5818;-67
2022/12/01 16:03:18;;;;;;;;;;;;;;;9.96;48.64;97029.41;4166734;28;5751;-67
2022/12/01 16:05:25;;;;;;;;;;;;;;;9.97;48.77;97031.09;4175435;28;5722;-67
2022/12/01 16:07:32;;;;;;;;;;;;;;;10.00;48.58;97035.19;4168688;28;5762;-67
2022/12/01 16:09:58;;;;;;;;;;;;;;;10.00;48.61;97020.16;4165796;28;5890;-66
2022/12/01 16:12:21;;;;;;;;;;;;;;;10.01;48.35;97021.78;4168099;28;5740;-68
2022/12/01 16:14:24;;;;;;;;;;;;;;;10.01;48.59;97026.25;4152885;28;5950;-67
2022/12/01 16:16:33;;;;;;;;;;;;;;;10.02;48.62;97035.81;4166841;28;5736;-66
2022/12/01 16:18:36;;;;;;;;;;;;;;;10.01;48.56;97034.19;4168425;28;5845;-66
2022/12/01 16:20:42;;;;;;;;;;;;;;;10.02;48.79;97022.59;4168085;28;5762;-67
2022/12/01 16:22:47;;;;;;;;;;;;;;;10.00;48.37;97032.53;4163292;28;5743;-66
2022/12/01 16:24:52;;;;;;;;;;;;;;;9.99;48.58;97030.91;4167258;28;5851;-67
2022/12/01 16:27:00;;;;;;;;;;;;;;;9.94;48.45;97036.72;4164129;28;6703;-68
2022/12/01 16:29:18;;;;;;;;;;;;;;;9.84;48.56;97031.72;4165811;28;5918;-68
2022/12/01 16:31:21;;;;;;;;;;;;;;;9.83;48.97;97030.06;4156422;28;6607;-67
2022/12/01 16:33:26;;;;;;;;;;;;;;;9.79;48.79;97033.28;4154021;28;5877;-67
2022/12/01 16:35:32;;;;;;;;;;;;;;;9.77;49.00;97032.63;4159303;28;5755;-67
2022/12/01 16:37:35;;;;;;;;;;;;;;;9.79;48.90;97028.81;4163986;28;5754;-67
2022/12/01 16:39:38;;;;;;;;;;;;;;;9.76;48.57;97034.47;4160200;28;5751;-78
2022/12/01 16:41:43;;;;;;;;;;;;;;;9.64;48.67;97033.28;4166428;28;5810;-77
2022/12/01 16:43:48;;;;;;;;;;;;;;;9.66;48.99;97038.38;4153157;28;5889;-63
2022/12/01 16:46:13;;;;;;;;;;;;;;;9.60;48.75;97029.34;4159224;28;5929;-62
2022/12/01 16:48:18;;;;;;;;;;;;;;;9.53;49.12;97034.53;4163287;28;5798;-63
2022/12/01 16:50:22;;;;;;;;;;;;;;;9.53;49.14;97036.34;4167926;28;5736;-62
2022/12/01 16:52:25;;;;;;;;;;;;;;;9.56;48.81;97036.81;4164000;28;5833;-62
2022/12/01 16:54:49;;;;;;;;;;;;;;;9.60;49.13;97035.44;4161026;28;5884;-62
2022/12/01 16:56:52;;;;;;;;;;;;;;;9.62;49.14;97044.00;4160539;28;6743;-61
2022/12/01 16:58:56;;;;;;;;;;;;;;;9.63;48.96;97034.28;4164335;28;5941;-62
2022/12/01 17:00:59;;;;;;;;;;;;;;;9.64;49.17;97030.63;4160282;28;5849;-62
2022/12/01 17:03:02;;;;;;;;;;;;;;;9.63;48.94;97039.56;4167941;28;5815;-62
2022/12/01 17:05:05;;;;;;;;;;;;;;;9.61;49.00;97028.34;4166939;28;5935;-63
2022/12/01 17:07:08;;;;;;;;;;;;;;;9.62;48.94;97040.53;4163054;28;5724;-64
2022/12/01 17:09:14;;;;;;;;;;;;;;;9.63;49.02;97034.28;4163874;28;5814;-61
2022/12/01 17:11:17;;;;;;;;;;;;;;;9.63;49.14;97035.09;4167753;28;5763;-63
2022/12/01 17:13:22;;;;;;;;;;;;;;;9.59;49.15;97036.44;4168076;28;5897;-62
2022/12/01 17:15:26;;;;;;;;;;;;;;;9.58;49.02;97041.91;4165034;28;5841;-61
2022/12/01 17:17:29;;;;;;;;;;;;;;;9.57;49.07;97033.16;4167785;28;5898;-62
2022/12/01 17:19:32;;;;;;;;;;;;;;;9.57;49.16;97033.16;4164064;28;5835;-62
2022/12/01 17:21:34;;;;;;;;;;;;;;;9.57;49.02;97035.81;4162709;28;5864;-62
2022/12/01 17:23:39;;;;;;;;;;;;;;;9.58;49.25;97036.63;4169591;28;5826;-62
2022/12/01 17:25:42;;;;;;;;;;;;;;;9.64;49.01;97033.28;4169323;28;5836;-62
2022/12/01 17:27:45;;;;;;;;;;;;;;;9.69;49.00;97041.47;4171697;28;5837;-62
2022/12/01 17:29:47;;;;;;;;;;;;;;;9.71;49.17;97034.16;4162674;28;5788;-63
2022/12/01 17:31:52;;;;;;;;;;;;;;;9.76;48.86;97036.28;4163517;28;5954;-62
2022/12/01 17:33:55;;;;;;;;;;;;;;;9.80;48.97;97030.44;4164571;28;5958;-63
2022/12/01 17:36:00;;;;;;;;;;;;;;;9.81;49.17;97037.38;4169464;28;5897;-63
2022/12/01 17:38:03;;;;;;;;;;;;;;;9.85;48.98;97036.00;4164974;28;5865;-63
2022/12/01 17:40:08;;;;;;;;;;;;;;;9.87;48.94;97034.00;4163985;28;5844;-63
2022/12/01 17:42:10;;;;;;;;;;;;;;;9.89;48.95;97034.63;4158089;28;5867;-63
2022/12/01 17:44:13;;;;;;;;;;;;;;;9.93;48.68;97040.38;4158436;28;7300;-65
2022/12/01 17:46:16;;;;;;;;;;;;;;;9.94;48.67;97031.44;4156294;28;5881;-63
2022/12/01 17:48:20;;;;;;;;;;;;;;;9.95;49.02;97042.81;4165511;28;5740;-63
2022/12/01 17:50:23;;;;;;;;;;;;;;;9.96;48.94;97033.88;4159790;28;5730;-63
2022/12/01 17:52:26;;;;;;;;;;;;;;;9.98;48.91;97031.91;4166956;28;5893;-63